Time;durP1;ratioP1;P1;durP2;ratioP2;P2;SDS_P1;SDS_P2;PMS_P1;PMS_P2;Temp;Humidity;BMP_temperature;BMP_pressure;BME280_temperature;BME280_humidity;BME280_pressure;Samples;Min_cycle;Max_cycle;Signal;HPM_P1;HPM_P2
2022/09/04 18:30:53;;;;;;;1.33;1.08;;;;;;;;;;7418878;19;20790;-73
2022/09/04 18:33:25;;;;;;;1.15;1.00;;;;;;;;;;7421676;19;20085;-74
2022/09/04 18:36:12;;;;;;;1.55;1.38;;;;;;;;;;7423039;19;20487;-72
2022/09/04 18:38:43;;;;;;;1.42;1.15;;;;;;;;;;7339710;19;20036;-73
2022/09/04 18:41:18;;;;;;;1.30;1.20;;;;;;;;;;7420125;19;20006;-73
2022/09/04 18:44:02;;;;;;;2.33;1.65;;;;;;;;;;7416834;19;20285;-73
2022/09/04 18:46:28;;;;;;;2.80;1.27;;;;;;;;;;7414452;19;20021;-72
2022/09/04 18:49:07;;;;;;;1.55;1.42;;;;;;;;;;7419149;19;20006;-72
2022/09/04 18:51:49;;;;;;;1.13;1.00;;;;;;;;;;7418479;19;20014;-73
2022/09/04 18:54:40;;;;;;;1.73;1.40;;;;;;;;;;7419500;19;20367;-73
2022/09/04 18:57:28;;;;;;;2.53;1.42;;;;;;;;;;7423686;19;20062;-73
2022/09/04 19:00:01;;;;;;;1.33;1.23;;;;;;;;;;7419776;19;20054;-73
2022/09/04 19:02:32;;;;;;;1.52;1.40;;;;;;;;;;7421496;19;20030;-74
2022/09/04 19:05:14;;;;;;;2.22;1.60;;;;;;;;;;7419251;19;20003;-74
2022/09/04 19:07:50;;;;;;;2.42;1.60;;;;;;;;;;7421575;19;20006;-73
2022/09/04 19:10:26;;;;;;;2.05;1.20;;;;;;;;;;7419551;19;20010;-73
2022/09/04 19:13:00;;;;;;;1.25;1.15;;;;;;;;;;7420380;19;20010;-74
2022/09/04 19:15:28;;;;;;;2.40;1.73;;;;;;;;;;7415995;19;20420;-74
2022/09/04 19:17:59;;;;;;;1.35;1.25;;;;;;;;;;7422074;19;20142;-75
2022/09/04 19:20:32;;;;;;;3.33;1.50;;;;;;;;;;7421522;19;20005;-73
2022/09/04 19:23:05;;;;;;;1.35;1.17;;;;;;;;;;7421672;19;20381;-73
2022/09/04 19:25:37;;;;;;;2.13;1.65;;;;;;;;;;7417802;19;20027;-73
2022/09/04 19:28:15;;;;;;;1.73;1.30;;;;;;;;;;7422513;19;20014;-74
2022/09/04 19:30:55;;;;;;;1.40;1.20;;;;;;;;;;7420980;19;20031;-73
2022/09/04 19:33:32;;;;;;;;;;;;;;;;;;7419201;19;20002;-74
2022/09/04 19:36:13;;;;;;;1.70;1.55;;;;;;;;;;7421826;19;20266;-73
2022/09/04 19:39:21;;;;;;;1.45;1.10;;;;;;;;;;7419768;19;20006;-73
2022/09/04 19:41:54;;;;;;;1.58;1.05;;;;;;;;;;7390960;19;20007;-73
2022/09/04 19:44:26;;;;;;;1.50;1.40;;;;;;;;;;7390031;19;20033;-71
2022/09/04 19:47:00;;;;;;;1.20;1.10;;;;;;;;;;7391220;19;20002;-70
2022/09/04 19:49:37;;;;;;;1.02;0.90;;;;;;;;;;7390266;19;20595;-73
2022/09/04 19:52:11;;;;;;;1.35;1.23;;;;;;;;;;7388458;19;20010;-74
2022/09/04 19:54:44;;;;;;;2.17;1.48;;;;;;;;;;7390242;19;20087;-74
2022/09/04 19:57:25;;;;;;;2.22;1.40;;;;;;;;;;7389660;19;20011;-73
2022/09/04 20:00:17;;;;;;;3.10;1.55;;;;;;;;;;7387707;19;20408;-75
2022/09/04 20:02:48;;;;;;;1.63;1.42;;;;;;;;;;7388084;19;20003;-74
2022/09/04 20:05:25;;;;;;;;;;;;;;;;;;7392489;19;19998;-74
2022/09/04 20:07:55;;;;;;;2.00;1.50;;;;;;;;;;7391016;19;19914;-75
2022/09/04 20:10:39;;;;;;;1.40;1.30;;;;;;;;;;7390884;19;20344;-74
2022/09/04 20:13:38;;;;;;;1.40;1.20;;;;;;;;;;7390187;19;20006;-74
2022/09/04 20:16:20;;;;;;;1.73;1.30;;;;;;;;;;7389415;19;20086;-73
2022/09/04 20:19:22;;;;;;;1.92;1.30;;;;;;;;;;7388543;19;20003;-74
2022/09/04 20:22:23;;;;;;;1.23;1.13;;;;;;;;;;7387683;19;20024;-73
2022/09/04 20:25:16;;;;;;;1.67;1.40;;;;;;;;;;7384741;19;20006;-72
2022/09/04 20:27:49;;;;;;;1.92;1.23;;;;;;;;;;7387963;19;20037;-73
2022/09/04 20:30:23;;;;;;;2.08;1.45;;;;;;;;;;7385160;19;19994;-72
2022/09/04 20:33:00;;;;;;;1.67;1.27;;;;;;;;;;7389640;19;20030;-74
2022/09/04 20:35:33;;;;;;;2.05;1.52;;;;;;;;;;7390369;19;19995;-73
2022/09/04 20:38:24;;;;;;;1.55;1.45;;;;;;;;;;7388388;19;20003;-73
2022/09/04 20:40:59;;;;;;;;;;;;;;;;;;7386420;19;20006;-74
2022/09/04 20:43:53;;;;;;;1.60;1.45;;;;;;;;;;7388984;19;19911;-74
2022/09/04 20:46:45;;;;;;;2.08;1.30;;;;;;;;;;7388944;19;20023;-73
2022/09/04 20:49:23;;;;;;;4.20;1.88;;;;;;;;;;7385215;19;20009;-74
2022/09/04 20:52:30;;;;;;;2.78;1.35;;;;;;;;;;7385475;19;20005;-72
2022/09/04 20:55:16;;;;;;;1.15;1.13;;;;;;;;;;7387030;19;19994;-72
2022/09/04 20:58:00;;;;;;;1.80;1.25;;;;;;;;;;7384543;19;20013;-74
2022/09/04 21:00:26;;;;;;;2.50;1.38;;;;;;;;;;7384562;19;20002;-74
2022/09/04 21:03:12;;;;;;;2.60;1.88;;;;;;;;;;7385760;19;20014;-72
2022/09/04 21:05:59;;;;;;;1.58;1.40;;;;;;;;;;7389279;19;20006;-75
2022/09/04 21:08:32;;;;;;;1.30;1.20;;;;;;;;;;7388573;19;20031;-74
2022/09/04 21:11:04;;;;;;;1.70;1.33;;;;;;;;;;7386767;19;20002;-72
2022/09/04 21:13:41;;;;;;;1.55;1.33;;;;;;;;;;7390197;19;20007;-73
2022/09/04 21:16:28;;;;;;;2.50;1.60;;;;;;;;;;7385724;19;20003;-74
2022/09/04 21:19:03;;;;;;;3.13;2.10;;;;;;;;;;7387884;19;20005;-75
2022/09/04 21:22:03;;;;;;;1.83;1.50;;;;;;;;;;7388656;19;20495;-75
2022/09/04 21:24:49;;;;;;;2.90;1.70;;;;;;;;;;7391948;19;20001;-74
2022/09/04 21:27:55;;;;;;;2.05;1.65;;;;;;;;;;7385477;19;20094;-74
2022/09/04 21:30:42;;;;;;;2.72;1.88;;;;;;;;;;7385388;19;20002;-72
2022/09/04 21:33:15;;;;;;;2.90;1.75;;;;;;;;;;7381909;19;19999;-74
2022/09/04 21:35:53;;;;;;;3.17;1.70;;;;;;;;;;7384606;19;20006;-74
2022/09/04 21:38:53;;;;;;;3.75;1.92;;;;;;;;;;7387220;19;20540;-73
2022/09/04 21:41:37;;;;;;;2.47;1.73;;;;;;;;;;7388908;19;19999;-74
2022/09/04 21:44:40;;;;;;;1.65;1.30;;;;;;;;;;7389202;19;19994;-73
2022/09/04 21:47:21;;;;;;;3.53;2.03;;;;;;;;;;7390112;19;19999;-73
2022/09/04 21:50:04;;;;;;;3.70;1.73;;;;;;;;;;7388482;19;20005;-73
2022/09/04 21:52:58;;;;;;;2.53;1.63;;;;;;;;;;7389748;19;19999;-72
2022/09/04 21:55:48;;;;;;;1.98;1.27;;;;;;;;;;7387548;19;20018;-74
2022/09/04 21:58:46;;;;;;;2.83;1.77;;;;;;;;;;7388645;19;19998;-73
2022/09/04 22:01:40;;;;;;;3.53;2.00;;;;;;;;;;7389292;19;19995;-73
2022/09/04 22:04:33;;;;;;;2.90;1.92;;;;;;;;;;7387934;19;20379;-73
2022/09/04 22:07:11;;;;;;;2.22;1.67;;;;;;;;;;7388918;19;19998;-73
2022/09/04 22:10:04;;;;;;;1.88;1.52;;;;;;;;;;7387590;19;20431;-73
2022/09/04 22:12:45;;;;;;;2.92;1.60;;;;;;;;;;7389073;19;19994;-73
2022/09/04 22:15:15;;;;;;;2.70;1.67;;;;;;;;;;7387321;19;20029;-74
2022/09/04 22:18:01;;;;;;;2.25;1.33;;;;;;;;;;7384653;19;20002;-73
2022/09/04 22:20:52;;;;;;;3.20;1.77;;;;;;;;;;7386148;19;20333;-73
2022/09/04 22:23:52;;;;;;;3.22;1.75;;;;;;;;;;7386471;19;19991;-74
2022/09/04 22:26:32;;;;;;;2.72;1.85;;;;;;;;;;7387069;19;19998;-73
2022/09/04 22:29:17;;;;;;;3.13;1.80;;;;;;;;;;7383779;19;19991;-74
2022/09/04 22:32:10;;;;;;;2.75;1.95;;;;;;;;;;7386339;19;20231;-73
2022/09/04 22:34:54;;;;;;;1.77;1.55;;;;;;;;;;7382585;19;19995;-73
2022/09/04 22:37:50;;;;;;;3.90;1.48;;;;;;;;;;7383058;19;20073;-73
2022/09/04 22:40:44;;;;;;;2.83;1.75;;;;;;;;;;7383038;19;19999;-73
2022/09/04 22:43:13;;;;;;;2.40;1.67;;;;;;;;;;7384300;19;19999;-73
2022/09/04 22:45:58;;;;;;;2.28;1.58;;;;;;;;;;7386961;19;20024;-72
2022/09/04 22:49:21;;;;;;;2.70;1.75;;;;;;;;;;7383282;19;20535;-73
2022/09/04 22:52:08;;;;;;;3.28;2.03;;;;;;;;;;7382913;19;20002;-73
2022/09/04 22:54:39;;;;;;;5.50;2.10;;;;;;;;;;7382662;19;20016;-74
2022/09/04 22:57:17;;;;;;;2.50;1.52;;;;;;;;;;7385606;19;19998;-73
2022/09/04 22:59:45;;;;;;;2.65;1.70;;;;;;;;;;7385234;19;20062;-72
2022/09/04 23:02:48;;;;;;;2.72;1.98;;;;;;;;;;7387026;19;19999;-73
2022/09/04 23:05:29;;;;;;;2.55;1.77;;;;;;;;;;7386185;19;20006;-73
2022/09/04 23:08:09;;;;;;;2.13;1.67;;;;;;;;;;7384829;19;20031;-73
2022/09/04 23:11:13;;;;;;;2.92;1.77;;;;;;;;;;7385077;19;20028;-74
2022/09/04 23:14:15;;;;;;;2.50;1.80;;;;;;;;;;7386312;19;20002;-75
2022/09/04 23:16:55;;;;;;;3.38;1.63;;;;;;;;;;7391649;19;20098;-72
2022/09/04 23:19:45;;;;;;;2.78;1.60;;;;;;;;;;7391864;19;19999;-73
2022/09/04 23:22:42;;;;;;;3.30;1.90;;;;;;;;;;7393825;19;19999;-74
2022/09/04 23:25:40;;;;;;;4.07;2.28;;;;;;;;;;7394107;19;20390;-74
2022/09/04 23:28:38;;;;;;;3.05;2.10;;;;;;;;;;7392615;19;20009;-73
2022/09/04 23:31:51;;;;;;;3.53;1.92;;;;;;;;;;7394234;19;20482;-73
2022/09/04 23:34:44;;;;;;;3.17;1.85;;;;;;;;;;7393512;19;20006;-73
2022/09/04 23:37:47;;;;;;;2.58;1.77;;;;;;;;;;7394260;19;19994;-73
2022/09/04 23:40:31;;;;;;;2.17;1.73;;;;;;;;;;7391802;19;20540;-73
2022/09/04 23:43:23;;;;;;;5.45;2.08;;;;;;;;;;7392543;19;20515;-73
2022/09/04 23:46:34;;;;;;;2.00;1.63;;;;;;;;;;7391607;19;20066;-73
2022/09/04 23:49:18;;;;;;;;;;;;;;;;;;7394334;19;19998;-73
2022/09/04 23:51:55;;;;;;;2.83;1.90;;;;;;;;;;7393204;19;19915;-73
2022/09/04 23:54:56;;;;;;;4.15;2.25;;;;;;;;;;7392643;19;19999;-74
2022/09/04 23:57:52;;;;;;;2.72;1.75;;;;;;;;;;7392817;19;20024;-73
